sensor_id;sensor_type;location;lat;lon;timestamp;P1;durP1;ratioP1;P2;durP2;ratioP2
68377;SDS011;55322;48.146;11.516;2024-02-21T00:00:08;5.60;;;1.27;;
68377;SDS011;55322;48.146;11.516;2024-02-21T00:02:36;6.85;;;1.10;;
68377;SDS011;55322;48.146;11.516;2024-02-21T00:05:01;6.80;;;1.17;;
68377;SDS011;55322;48.146;11.516;2024-02-21T00:07:27;6.40;;;1.15;;
68377;SDS011;55322;48.146;11.516;2024-02-21T00:09:53;6.40;;;1.20;;
68377;SDS011;55322;48.146;11.516;2024-02-21T00:12:18;6.25;;;1.25;;
68377;SDS011;55322;48.146;11.516;2024-02-21T00:14:43;4.87;;;0.97;;
68377;SDS011;55322;48.146;11.516;2024-02-21T00:17:09;6.80;;;1.17;;
68377;SDS011;55322;48.146;11.516;2024-02-21T00:19:34;8.17;;;1.40;;
68377;SDS011;55322;48.146;11.516;2024-02-21T00:22:00;5.28;;;1.00;;
68377;SDS011;55322;48.146;11.516;2024-02-21T00:24:25;8.60;;;1.20;;
68377;SDS011;55322;48.146;11.516;2024-02-21T00:26:51;8.17;;;1.13;;
68377;SDS011;55322;48.146;11.516;2024-02-21T00:29:16;7.50;;;1.67;;
68377;SDS011;55322;48.146;11.516;2024-02-21T00:31:41;5.83;;;1.20;;
68377;SDS011;55322;48.146;11.516;2024-02-21T00:34:07;6.05;;;0.90;;
68377;SDS011;55322;48.146;11.516;2024-02-21T00:36:32;6.10;;;1.20;;
68377;SDS011;55322;48.146;11.516;2024-02-21T00:38:58;6.77;;;1.10;;
68377;SDS011;55322;48.146;11.516;2024-02-21T00:41:23;4.87;;;1.00;;
68377;SDS011;55322;48.146;11.516;2024-02-21T00:43:48;7.13;;;1.20;;
68377;SDS011;55322;48.146;11.516;2024-02-21T00:46:15;7.32;;;1.08;;
68377;SDS011;55322;48.146;11.516;2024-02-21T00:48:40;5.13;;;1.00;;
68377;SDS011;55322;48.146;11.516;2024-02-21T00:51:06;5.90;;;0.90;;
68377;SDS011;55322;48.146;11.516;2024-02-21T00:53:31;6.27;;;0.83;;
68377;SDS011;55322;48.146;11.516;2024-02-21T00:55:56;7.07;;;0.90;;
68377;SDS011;55322;48.146;11.516;2024-02-21T00:58:22;6.57;;;1.20;;
68377;SDS011;55322;48.146;11.516;2024-02-21T01:00:47;6.82;;;1.20;;
68377;SDS011;55322;48.146;11.516;2024-02-21T01:03:13;4.47;;;0.85;;
68377;SDS011;55322;48.146;11.516;2024-02-21T01:05:38;6.20;;;1.10;;
68377;SDS011;55322;48.146;11.516;2024-02-21T01:08:04;5.57;;;0.93;;
68377;SDS011;55322;48.146;11.516;2024-02-21T01:10:29;6.82;;;1.20;;
68377;SDS011;55322;48.146;11.516;2024-02-21T01:12:55;5.83;;;0.87;;
68377;SDS011;55322;48.146;11.516;2024-02-21T01:15:20;6.20;;;1.03;;
68377;SDS011;55322;48.146;11.516;2024-02-21T01:17:45;5.23;;;0.83;;
68377;SDS011;55322;48.146;11.516;2024-02-21T01:20:11;5.87;;;1.30;;
68377;SDS011;55322;48.146;11.516;2024-02-21T01:22:36;6.25;;;0.95;;
68377;SDS011;55322;48.146;11.516;2024-02-21T01:25:02;4.53;;;0.80;;
68377;SDS011;55322;48.146;11.516;2024-02-21T01:27:27;5.03;;;0.77;;
68377;SDS011;55322;48.146;11.516;2024-02-21T01:29:53;8.20;;;1.30;;
68377;SDS011;55322;48.146;11.516;2024-02-21T01:32:18;4.78;;;1.00;;
68377;SDS011;55322;48.146;11.516;2024-02-21T01:34:43;9.07;;;1.20;;
68377;SDS011;55322;48.146;11.516;2024-02-21T01:37:09;4.57;;;1.03;;
68377;SDS011;55322;48.146;11.516;2024-02-21T01:39:34;5.10;;;1.07;;
68377;SDS011;55322;48.146;11.516;2024-02-21T01:41:59;4.67;;;1.10;;
68377;SDS011;55322;48.146;11.516;2024-02-21T01:44:25;5.60;;;1.08;;
68377;SDS011;55322;48.146;11.516;2024-02-21T01:46:50;4.93;;;1.10;;
68377;SDS011;55322;48.146;11.516;2024-02-21T01:49:17;7.15;;;0.90;;
68377;SDS011;55322;48.146;11.516;2024-02-21T01:51:43;3.95;;;0.70;;
68377;SDS011;55322;48.146;11.516;2024-02-21T01:54:09;5.80;;;0.90;;
68377;SDS011;55322;48.146;11.516;2024-02-21T01:56:35;6.00;;;0.90;;
68377;SDS011;55322;48.146;11.516;2024-02-21T01:59:01;5.40;;;1.07;;
68377;SDS011;55322;48.146;11.516;2024-02-21T02:01:26;5.80;;;0.83;;
68377;SDS011;55322;48.146;11.516;2024-02-21T02:03:53;5.05;;;0.90;;
68377;SDS011;55322;48.146;11.516;2024-02-21T02:06:20;6.25;;;0.80;;
68377;SDS011;55322;48.146;11.516;2024-02-21T02:08:45;7.27;;;0.80;;
68377;SDS011;55322;48.146;11.516;2024-02-21T02:11:12;7.57;;;1.20;;
68377;SDS011;55322;48.146;11.516;2024-02-21T02:13:39;4.35;;;0.80;;
68377;SDS011;55322;48.146;11.516;2024-02-21T02:16:04;5.37;;;1.00;;
68377;SDS011;55322;48.146;11.516;2024-02-21T02:18:30;4.78;;;0.70;;
68377;SDS011;55322;48.146;11.516;2024-02-21T02:20:55;5.17;;;0.80;;
68377;SDS011;55322;48.146;11.516;2024-02-21T02:25:50;4.32;;;0.68;;
68377;SDS011;55322;48.146;11.516;2024-02-21T02:28:19;5.07;;;1.00;;
68377;SDS011;55322;48.146;11.516;2024-02-21T02:30:45;4.88;;;1.00;;
68377;SDS011;55322;48.146;11.516;2024-02-21T02:33:11;4.57;;;0.80;;
68377;SDS011;55322;48.146;11.516;2024-02-21T02:35:36;5.20;;;0.63;;
68377;SDS011;55322;48.146;11.516;2024-02-21T02:38:02;4.03;;;0.70;;
68377;SDS011;55322;48.146;11.516;2024-02-21T02:40:28;4.57;;;0.77;;
68377;SDS011;55322;48.146;11.516;2024-02-21T02:42:53;4.47;;;0.80;;
68377;SDS011;55322;48.146;11.516;2024-02-21T02:45:22;4.63;;;0.80;;
68377;SDS011;55322;48.146;11.516;2024-02-21T02:47:51;4.38;;;0.90;;
68377;SDS011;55322;48.146;11.516;2024-02-21T02:50:17;5.10;;;0.63;;
68377;SDS011;55322;48.146;11.516;2024-02-21T02:52:42;3.80;;;0.80;;
68377;SDS011;55322;48.146;11.516;2024-02-21T02:55:08;3.08;;;0.45;;
68377;SDS011;55322;48.146;11.516;2024-02-21T02:57:33;5.40;;;0.60;;
68377;SDS011;55322;48.146;11.516;2024-02-21T02:59:58;3.73;;;0.50;;
68377;SDS011;55322;48.146;11.516;2024-02-21T03:02:24;4.67;;;0.90;;
68377;SDS011;55322;48.146;11.516;2024-02-21T03:04:50;4.18;;;0.70;;
68377;SDS011;55322;48.146;11.516;2024-02-21T03:07:15;3.03;;;0.43;;
68377;SDS011;55322;48.146;11.516;2024-02-21T03:09:41;4.37;;;0.60;;
68377;SDS011;55322;48.146;11.516;2024-02-21T03:12:08;5.05;;;0.60;;
68377;SDS011;55322;48.146;11.516;2024-02-21T03:14:33;3.78;;;0.63;;
68377;SDS011;55322;48.146;11.516;2024-02-21T03:16:59;4.70;;;0.70;;
68377;SDS011;55322;48.146;11.516;2024-02-21T03:19:24;3.90;;;0.70;;
68377;SDS011;55322;48.146;11.516;2024-02-21T03:21:50;4.75;;;0.80;;
68377;SDS011;55322;48.146;11.516;2024-02-21T03:24:16;4.60;;;0.43;;
68377;SDS011;55322;48.146;11.516;2024-02-21T03:26:42;4.00;;;0.70;;
68377;SDS011;55322;48.146;11.516;2024-02-21T03:29:08;3.42;;;0.70;;
68377;SDS011;55322;48.146;11.516;2024-02-21T03:31:37;3.83;;;0.63;;
68377;SDS011;55322;48.146;11.516;2024-02-21T03:34:02;3.23;;;0.60;;
68377;SDS011;55322;48.146;11.516;2024-02-21T03:36:28;5.50;;;0.75;;
68377;SDS011;55322;48.146;11.516;2024-02-21T03:38:54;4.07;;;0.70;;
68377;SDS011;55322;48.146;11.516;2024-02-21T03:41:20;3.35;;;0.47;;
68377;SDS011;55322;48.146;11.516;2024-02-21T03:43:45;3.93;;;0.60;;
68377;SDS011;55322;48.146;11.516;2024-02-21T03:46:11;4.53;;;0.67;;
68377;SDS011;55322;48.146;11.516;2024-02-21T03:48:36;4.97;;;0.70;;
68377;SDS011;55322;48.146;11.516;2024-02-21T03:51:02;4.73;;;0.60;;
68377;SDS011;55322;48.146;11.516;2024-02-21T03:53:27;4.07;;;0.60;;
68377;SDS011;55322;48.146;11.516;2024-02-21T03:55:53;4.32;;;0.60;;
68377;SDS011;55322;48.146;11.516;2024-02-21T03:58:19;4.85;;;0.70;;
68377;SDS011;55322;48.146;11.516;2024-02-21T04:00:44;4.82;;;0.68;;
68377;SDS011;55322;48.146;11.516;2024-02-21T04:03:10;4.23;;;0.60;;
68377;SDS011;55322;48.146;11.516;2024-02-21T04:05:35;3.50;;;0.53;;
68377;SDS011;55322;48.146;11.516;2024-02-21T04:08:04;2.90;;;0.40;;
68377;SDS011;55322;48.146;11.516;2024-02-21T04:10:30;4.90;;;0.60;;
68377;SDS011;55322;48.146;11.516;2024-02-21T04:12:55;4.50;;;0.57;;
68377;SDS011;55322;48.146;11.516;2024-02-21T04:15:20;4.50;;;0.60;;
68377;SDS011;55322;48.146;11.516;2024-02-21T04:17:46;3.37;;;0.50;;
68377;SDS011;55322;48.146;11.516;2024-02-21T04:20:15;2.78;;;0.30;;
68377;SDS011;55322;48.146;11.516;2024-02-21T04:22:44;4.25;;;0.68;;
68377;SDS011;55322;48.146;11.516;2024-02-21T04:25:09;4.20;;;0.50;;
68377;SDS011;55322;48.146;11.516;2024-02-21T04:27:36;3.47;;;0.57;;
68377;SDS011;55322;48.146;11.516;2024-02-21T04:30:02;3.95;;;0.50;;
68377;SDS011;55322;48.146;11.516;2024-02-21T04:32:27;3.67;;;0.50;;
68377;SDS011;55322;48.146;11.516;2024-02-21T04:34:53;3.92;;;0.43;;
68377;SDS011;55322;48.146;11.516;2024-02-21T04:37:18;3.78;;;0.63;;
68377;SDS011;55322;48.146;11.516;2024-02-21T04:39:44;4.17;;;0.50;;
68377;SDS011;55322;48.146;11.516;2024-02-21T04:42:09;3.63;;;0.50;;
68377;SDS011;55322;48.146;11.516;2024-02-21T04:44:35;3.05;;;0.40;;
68377;SDS011;55322;48.146;11.516;2024-02-21T04:47:01;4.17;;;0.50;;
68377;SDS011;55322;48.146;11.516;2024-02-21T04:49:26;4.70;;;0.80;;
68377;SDS011;55322;48.146;11.516;2024-02-21T04:51:51;3.25;;;0.40;;
68377;SDS011;55322;48.146;11.516;2024-02-21T04:54:17;4.68;;;0.47;;
68377;SDS011;55322;48.146;11.516;2024-02-21T04:56:42;4.03;;;0.40;;
68377;SDS011;55322;48.146;11.516;2024-02-21T04:59:07;4.40;;;0.50;;
68377;SDS011;55322;48.146;11.516;2024-02-21T05:01:33;6.37;;;0.60;;
68377;SDS011;55322;48.146;11.516;2024-02-21T05:03:58;4.07;;;0.60;;
68377;SDS011;55322;48.146;11.516;2024-02-21T05:06:23;3.77;;;0.70;;
68377;SDS011;55322;48.146;11.516;2024-02-21T05:08:49;3.57;;;0.50;;
68377;SDS011;55322;48.146;11.516;2024-02-21T05:11:14;3.27;;;0.60;;
68377;SDS011;55322;48.146;11.516;2024-02-21T05:13:40;3.90;;;0.50;;
68377;SDS011;55322;48.146;11.516;2024-02-21T05:16:05;2.83;;;0.40;;
68377;SDS011;55322;48.146;11.516;2024-02-21T05:18:31;3.37;;;0.63;;
68377;SDS011;55322;48.146;11.516;2024-02-21T05:20:58;3.38;;;0.60;;
68377;SDS011;55322;48.146;11.516;2024-02-21T05:23:24;4.35;;;0.60;;
68377;SDS011;55322;48.146;11.516;2024-02-21T05:25:49;2.83;;;0.30;;
68377;SDS011;55322;48.146;11.516;2024-02-21T05:28:14;3.53;;;0.50;;
68377;SDS011;55322;48.146;11.516;2024-02-21T05:30:40;2.78;;;0.40;;
68377;SDS011;55322;48.146;11.516;2024-02-21T05:33:08;3.17;;;0.40;;
68377;SDS011;55322;48.146;11.516;2024-02-21T05:35:33;4.05;;;0.50;;
68377;SDS011;55322;48.146;11.516;2024-02-21T05:37:59;2.75;;;0.47;;
68377;SDS011;55322;48.146;11.516;2024-02-21T05:40:25;4.25;;;0.40;;
68377;SDS011;55322;48.146;11.516;2024-02-21T05:42:50;2.30;;;0.40;;
68377;SDS011;55322;48.146;11.516;2024-02-21T05:45:17;2.72;;;0.40;;
68377;SDS011;55322;48.146;11.516;2024-02-21T05:47:43;3.33;;;0.50;;
68377;SDS011;55322;48.146;11.516;2024-02-21T05:50:09;4.38;;;0.60;;
68377;SDS011;55322;48.146;11.516;2024-02-21T05:52:34;3.50;;;0.40;;
68377;SDS011;55322;48.146;11.516;2024-02-21T05:55:00;3.23;;;0.47;;
68377;SDS011;55322;48.146;11.516;2024-02-21T05:57:25;2.97;;;0.50;;
68377;SDS011;55322;48.146;11.516;2024-02-21T05:59:51;3.80;;;0.50;;
68377;SDS011;55322;48.146;11.516;2024-02-21T06:02:16;5.03;;;0.60;;
68377;SDS011;55322;48.146;11.516;2024-02-21T06:04:41;2.80;;;0.40;;
68377;SDS011;55322;48.146;11.516;2024-02-21T06:07:07;2.70;;;0.37;;
68377;SDS011;55322;48.146;11.516;2024-02-21T06:09:33;2.92;;;0.40;;
68377;SDS011;55322;48.146;11.516;2024-02-21T06:11:59;3.20;;;0.60;;
68377;SDS011;55322;48.146;11.516;2024-02-21T06:14:24;3.33;;;0.53;;
68377;SDS011;55322;48.146;11.516;2024-02-21T06:16:49;6.43;;;1.25;;
68377;SDS011;55322;48.146;11.516;2024-02-21T06:19:15;6.33;;;0.60;;
68377;SDS011;55322;48.146;11.516;2024-02-21T06:21:40;3.20;;;0.43;;
68377;SDS011;55322;48.146;11.516;2024-02-21T06:24:06;3.60;;;0.50;;
68377;SDS011;55322;48.146;11.516;2024-02-21T06:26:31;3.57;;;0.50;;
68377;SDS011;55322;48.146;11.516;2024-02-21T06:28:57;2.72;;;0.40;;
68377;SDS011;55322;48.146;11.516;2024-02-21T06:31:24;3.63;;;0.60;;
68377;SDS011;55322;48.146;11.516;2024-02-21T06:33:50;4.68;;;0.60;;
68377;SDS011;55322;48.146;11.516;2024-02-21T06:36:15;3.55;;;0.50;;
68377;SDS011;55322;48.146;11.516;2024-02-21T06:38:40;3.47;;;0.67;;
68377;SDS011;55322;48.146;11.516;2024-02-21T06:41:06;6.43;;;0.60;;
68377;SDS011;55322;48.146;11.516;2024-02-21T06:43:32;4.22;;;0.57;;
68377;SDS011;55322;48.146;11.516;2024-02-21T06:45:57;4.50;;;0.60;;
68377;SDS011;55322;48.146;11.516;2024-02-21T06:48:22;9.30;;;0.70;;
68377;SDS011;55322;48.146;11.516;2024-02-21T06:50:48;3.73;;;0.60;;
68377;SDS011;55322;48.146;11.516;2024-02-21T06:53:13;5.50;;;0.53;;
68377;SDS011;55322;48.146;11.516;2024-02-21T06:55:39;2.97;;;0.40;;
68377;SDS011;55322;48.146;11.516;2024-02-21T06:58:04;5.70;;;0.60;;
68377;SDS011;55322;48.146;11.516;2024-02-21T07:00:29;3.40;;;0.70;;
68377;SDS011;55322;48.146;11.516;2024-02-21T07:02:55;4.37;;;0.50;;
68377;SDS011;55322;48.146;11.516;2024-02-21T07:05:20;3.93;;;0.57;;
68377;SDS011;55322;48.146;11.516;2024-02-21T07:07:46;5.90;;;0.50;;
68377;SDS011;55322;48.146;11.516;2024-02-21T07:10:11;4.93;;;0.40;;
68377;SDS011;55322;48.146;11.516;2024-02-21T07:12:36;2.43;;;0.40;;
68377;SDS011;55322;48.146;11.516;2024-02-21T07:15:07;3.33;;;0.40;;
68377;SDS011;55322;48.146;11.516;2024-02-21T07:17:32;3.37;;;0.40;;
68377;SDS011;55322;48.146;11.516;2024-02-21T07:19:58;3.42;;;0.50;;
68377;SDS011;55322;48.146;11.516;2024-02-21T07:22:24;2.83;;;0.50;;
68377;SDS011;55322;48.146;11.516;2024-02-21T07:24:49;2.97;;;0.40;;
68377;SDS011;55322;48.146;11.516;2024-02-21T07:27:15;3.80;;;0.60;;
68377;SDS011;55322;48.146;11.516;2024-02-21T07:29:41;3.58;;;0.73;;
68377;SDS011;55322;48.146;11.516;2024-02-21T07:32:06;2.90;;;0.50;;
68377;SDS011;55322;48.146;11.516;2024-02-21T07:34:32;4.47;;;0.70;;
68377;SDS011;55322;48.146;11.516;2024-02-21T07:36:57;3.67;;;0.65;;
68377;SDS011;55322;48.146;11.516;2024-02-21T07:39:23;3.75;;;0.50;;
68377;SDS011;55322;48.146;11.516;2024-02-21T07:41:48;4.40;;;0.57;;
68377;SDS011;55322;48.146;11.516;2024-02-21T07:44:14;4.72;;;0.50;;
68377;SDS011;55322;48.146;11.516;2024-02-21T07:46:40;3.90;;;0.60;;
68377;SDS011;55322;48.146;11.516;2024-02-21T07:49:06;7.30;;;0.90;;
68377;SDS011;55322;48.146;11.516;2024-02-21T07:51:31;5.47;;;0.83;;
68377;SDS011;55322;48.146;11.516;2024-02-21T07:53:57;3.53;;;0.80;;
68377;SDS011;55322;48.146;11.516;2024-02-21T07:56:22;3.73;;;0.70;;
68377;SDS011;55322;48.146;11.516;2024-02-21T07:58:47;3.40;;;0.40;;
68377;SDS011;55322;48.146;11.516;2024-02-21T08:01:18;3.20;;;0.40;;
68377;SDS011;55322;48.146;11.516;2024-02-21T08:03:46;2.63;;;0.50;;
68377;SDS011;55322;48.146;11.516;2024-02-21T08:06:12;3.80;;;0.60;;
68377;SDS011;55322;48.146;11.516;2024-02-21T08:08:38;3.90;;;0.70;;
68377;SDS011;55322;48.146;11.516;2024-02-21T08:11:04;4.55;;;1.00;;
68377;SDS011;55322;48.146;11.516;2024-02-21T08:13:29;3.60;;;0.70;;
68377;SDS011;55322;48.146;11.516;2024-02-21T08:15:55;3.93;;;0.90;;
68377;SDS011;55322;48.146;11.516;2024-02-21T08:18:22;6.27;;;0.63;;
68377;SDS011;55322;48.146;11.516;2024-02-21T08:20:47;3.60;;;0.68;;
68377;SDS011;55322;48.146;11.516;2024-02-21T08:23:15;3.17;;;0.60;;
68377;SDS011;55322;48.146;11.516;2024-02-21T08:25:41;4.35;;;1.25;;
68377;SDS011;55322;48.146;11.516;2024-02-21T08:28:06;3.57;;;0.70;;
68377;SDS011;55322;48.146;11.516;2024-02-21T08:30:32;3.90;;;0.60;;
68377;SDS011;55322;48.146;11.516;2024-02-21T08:32:58;3.77;;;0.70;;
68377;SDS011;55322;48.146;11.516;2024-02-21T08:35:23;4.07;;;0.70;;
68377;SDS011;55322;48.146;11.516;2024-02-21T08:37:49;4.50;;;0.70;;
68377;SDS011;55322;48.146;11.516;2024-02-21T08:40:14;3.83;;;0.80;;
68377;SDS011;55322;48.146;11.516;2024-02-21T08:42:42;4.33;;;0.73;;
68377;SDS011;55322;48.146;11.516;2024-02-21T08:45:08;3.60;;;0.63;;
68377;SDS011;55322;48.146;11.516;2024-02-21T08:47:34;4.00;;;0.75;;
68377;SDS011;55322;48.146;11.516;2024-02-21T08:50:01;4.65;;;0.70;;
68377;SDS011;55322;48.146;11.516;2024-02-21T08:52:26;3.30;;;0.60;;
68377;SDS011;55322;48.146;11.516;2024-02-21T08:54:52;3.93;;;0.70;;
68377;SDS011;55322;48.146;11.516;2024-02-21T08:57:19;3.63;;;0.60;;
68377;SDS011;55322;48.146;11.516;2024-02-21T08:59:44;4.40;;;0.90;;
68377;SDS011;55322;48.146;11.516;2024-02-21T09:02:10;5.27;;;0.80;;
68377;SDS011;55322;48.146;11.516;2024-02-21T09:04:35;3.10;;;0.60;;
68377;SDS011;55322;48.146;11.516;2024-02-21T09:07:00;4.03;;;0.77;;
68377;SDS011;55322;48.146;11.516;2024-02-21T09:09:26;4.77;;;0.70;;
68377;SDS011;55322;48.146;11.516;2024-02-21T09:11:53;3.83;;;0.73;;
68377;SDS011;55322;48.146;11.516;2024-02-21T09:14:18;5.17;;;0.70;;
68377;SDS011;55322;48.146;11.516;2024-02-21T09:16:44;4.00;;;0.60;;
68377;SDS011;55322;48.146;11.516;2024-02-21T09:19:09;3.23;;;0.60;;
68377;SDS011;55322;48.146;11.516;2024-02-21T09:21:36;3.97;;;0.47;;
68377;SDS011;55322;48.146;11.516;2024-02-21T09:24:02;4.60;;;0.60;;
68377;SDS011;55322;48.146;11.516;2024-02-21T09:26:28;4.70;;;0.60;;
68377;SDS011;55322;48.146;11.516;2024-02-21T09:28:53;3.63;;;0.60;;
68377;SDS011;55322;48.146;11.516;2024-02-21T09:31:19;3.80;;;0.60;;
68377;SDS011;55322;48.146;11.516;2024-02-21T09:33:44;2.93;;;0.50;;
68377;SDS011;55322;48.146;11.516;2024-02-21T09:36:10;3.27;;;0.63;;
68377;SDS011;55322;48.146;11.516;2024-02-21T09:38:35;3.83;;;0.63;;
68377;SDS011;55322;48.146;11.516;2024-02-21T09:43:42;3.15;;;0.60;;
68377;SDS011;55322;48.146;11.516;2024-02-21T09:46:08;4.22;;;0.50;;
68377;SDS011;55322;48.146;11.516;2024-02-21T09:48:43;5.93;;;0.70;;
68377;SDS011;55322;48.146;11.516;2024-02-21T09:51:20;3.45;;;0.50;;
68377;SDS011;55322;48.146;11.516;2024-02-21T09:53:46;3.65;;;0.57;;
68377;SDS011;55322;48.146;11.516;2024-02-21T09:56:13;2.70;;;0.60;;
68377;SDS011;55322;48.146;11.516;2024-02-21T09:58:39;3.00;;;0.60;;
68377;SDS011;55322;48.146;11.516;2024-02-21T10:01:06;5.43;;;0.57;;
68377;SDS011;55322;48.146;11.516;2024-02-21T10:03:32;3.70;;;0.50;;
68377;SDS011;55322;48.146;11.516;2024-02-21T10:05:58;3.33;;;0.50;;
68377;SDS011;55322;48.146;11.516;2024-02-21T10:08:26;3.13;;;0.45;;
68377;SDS011;55322;48.146;11.516;2024-02-21T10:10:51;5.07;;;0.60;;
68377;SDS011;55322;48.146;11.516;2024-02-21T10:13:27;4.05;;;0.50;;
68377;SDS011;55322;48.146;11.516;2024-02-21T10:16:01;3.88;;;0.60;;
68377;SDS011;55322;48.146;11.516;2024-02-21T10:18:33;3.83;;;0.45;;
68377;SDS011;55322;48.146;11.516;2024-02-21T10:21:02;2.75;;;0.30;;
68377;SDS011;55322;48.146;11.516;2024-02-21T10:23:29;4.67;;;0.60;;
68377;SDS011;55322;48.146;11.516;2024-02-21T10:26:04;3.72;;;0.70;;
68377;SDS011;55322;48.146;11.516;2024-02-21T10:28:31;2.78;;;0.47;;
68377;SDS011;55322;48.146;11.516;2024-02-21T10:30:56;5.73;;;0.67;;
68377;SDS011;55322;48.146;11.516;2024-02-21T10:33:21;2.90;;;0.60;;
68377;SDS011;55322;48.146;11.516;2024-02-21T10:35:49;3.40;;;0.70;;
68377;SDS011;55322;48.146;11.516;2024-02-21T10:38:14;2.57;;;0.50;;
68377;SDS011;55322;48.146;11.516;2024-02-21T10:40:40;3.53;;;0.60;;
68377;SDS011;55322;48.146;11.516;2024-02-21T10:43:05;2.90;;;0.50;;
68377;SDS011;55322;48.146;11.516;2024-02-21T10:45:37;3.53;;;0.60;;
68377;SDS011;55322;48.146;11.516;2024-02-21T10:48:14;3.47;;;0.50;;
68377;SDS011;55322;48.146;11.516;2024-02-21T10:53:47;2.60;;;0.50;;
68377;SDS011;55322;48.146;11.516;2024-02-21T10:56:33;3.63;;;1.13;;
68377;SDS011;55322;48.146;11.516;2024-02-21T10:59:06;3.67;;;0.60;;
68377;SDS011;55322;48.146;11.516;2024-02-21T11:01:32;3.42;;;0.60;;
68377;SDS011;55322;48.146;11.516;2024-02-21T11:04:04;2.65;;;0.60;;
68377;SDS011;55322;48.146;11.516;2024-02-21T11:06:30;3.20;;;0.40;;
68377;SDS011;55322;48.146;11.516;2024-02-21T11:09:04;2.60;;;0.40;;
68377;SDS011;55322;48.146;11.516;2024-02-21T11:11:40;3.58;;;0.55;;
68377;SDS011;55322;48.146;11.516;2024-02-21T11:14:11;3.20;;;0.55;;
68377;SDS011;55322;48.146;11.516;2024-02-21T11:16:43;3.28;;;0.43;;
68377;SDS011;55322;48.146;11.516;2024-02-21T11:21:53;2.85;;;0.40;;
68377;SDS011;55322;48.146;11.516;2024-02-21T11:26:51;2.50;;;0.40;;
68377;SDS011;55322;48.146;11.516;2024-02-21T11:29:22;2.73;;;0.40;;
68377;SDS011;55322;48.146;11.516;2024-02-21T11:31:49;2.60;;;0.50;;
68377;SDS011;55322;48.146;11.516;2024-02-21T11:34:17;4.10;;;0.50;;
68377;SDS011;55322;48.146;11.516;2024-02-21T11:36:50;2.97;;;0.40;;
68377;SDS011;55322;48.146;11.516;2024-02-21T11:39:20;3.03;;;0.50;;
68377;SDS011;55322;48.146;11.516;2024-02-21T11:44:45;3.03;;;0.40;;
68377;SDS011;55322;48.146;11.516;2024-02-21T11:47:10;2.20;;;0.30;;
68377;SDS011;55322;48.146;11.516;2024-02-21T11:49:36;2.60;;;0.35;;
68377;SDS011;55322;48.146;11.516;2024-02-21T11:52:06;2.30;;;0.30;;
68377;SDS011;55322;48.146;11.516;2024-02-21T11:54:32;2.60;;;0.40;;
68377;SDS011;55322;48.146;11.516;2024-02-21T11:56:59;2.15;;;0.40;;
68377;SDS011;55322;48.146;11.516;2024-02-21T11:59:25;3.13;;;0.40;;
68377;SDS011;55322;48.146;11.516;2024-02-21T12:01:50;3.10;;;0.40;;
68377;SDS011;55322;48.146;11.516;2024-02-21T12:04:19;2.20;;;0.40;;
68377;SDS011;55322;48.146;11.516;2024-02-21T12:06:45;3.57;;;0.40;;
68377;SDS011;55322;48.146;11.516;2024-02-21T12:09:14;3.17;;;0.38;;
68377;SDS011;55322;48.146;11.516;2024-02-21T12:11:41;3.17;;;0.40;;
68377;SDS011;55322;48.146;11.516;2024-02-21T12:14:07;2.47;;;0.40;;
68377;SDS011;55322;48.146;11.516;2024-02-21T12:16:34;1.83;;;0.30;;
68377;SDS011;55322;48.146;11.516;2024-02-21T12:19:01;2.15;;;0.30;;
68377;SDS011;55322;48.146;11.516;2024-02-21T12:21:30;2.35;;;0.40;;
68377;SDS011;55322;48.146;11.516;2024-02-21T12:23:57;2.55;;;0.30;;
68377;SDS011;55322;48.146;11.516;2024-02-21T12:26:23;2.55;;;0.40;;
68377;SDS011;55322;48.146;11.516;2024-02-21T12:28:49;3.23;;;0.47;;
68377;SDS011;55322;48.146;11.516;2024-02-21T12:31:14;3.23;;;0.43;;
68377;SDS011;55322;48.146;11.516;2024-02-21T12:33:41;2.65;;;0.40;;
68377;SDS011;55322;48.146;11.516;2024-02-21T12:36:07;1.92;;;0.30;;
68377;SDS011;55322;48.146;11.516;2024-02-21T12:38:34;1.83;;;0.30;;
68377;SDS011;55322;48.146;11.516;2024-02-21T12:40:59;2.40;;;0.40;;
68377;SDS011;55322;48.146;11.516;2024-02-21T12:43:25;2.42;;;0.40;;
68377;SDS011;55322;48.146;11.516;2024-02-21T12:45:51;2.53;;;0.40;;
68377;SDS011;55322;48.146;11.516;2024-02-21T12:48:16;2.55;;;0.43;;
68377;SDS011;55322;48.146;11.516;2024-02-21T12:50:49;2.33;;;0.30;;
68377;SDS011;55322;48.146;11.516;2024-02-21T12:53:20;2.30;;;0.43;;
68377;SDS011;55322;48.146;11.516;2024-02-21T12:55:49;2.20;;;0.30;;
68377;SDS011;55322;48.146;11.516;2024-02-21T12:58:14;3.85;;;0.43;;
68377;SDS011;55322;48.146;11.516;2024-02-21T13:00:40;2.17;;;0.37;;
68377;SDS011;55322;48.146;11.516;2024-02-21T13:03:06;2.45;;;0.30;;
68377;SDS011;55322;48.146;11.516;2024-02-21T13:05:32;2.10;;;0.40;;
68377;SDS011;55322;48.146;11.516;2024-02-21T13:07:57;2.20;;;0.40;;
68377;SDS011;55322;48.146;11.516;2024-02-21T13:10:23;2.28;;;0.35;;
68377;SDS011;55322;48.146;11.516;2024-02-21T13:12:49;1.70;;;0.30;;
68377;SDS011;55322;48.146;11.516;2024-02-21T13:15:14;2.17;;;0.30;;
68377;SDS011;55322;48.146;11.516;2024-02-21T13:17:41;2.53;;;0.40;;
68377;SDS011;55322;48.146;11.516;2024-02-21T13:20:06;2.57;;;0.50;;
68377;SDS011;55322;48.146;11.516;2024-02-21T13:22:33;2.15;;;0.30;;
68377;SDS011;55322;48.146;11.516;2024-02-21T13:24:59;2.23;;;0.30;;
68377;SDS011;55322;48.146;11.516;2024-02-21T13:27:25;2.10;;;0.40;;
68377;SDS011;55322;48.146;11.516;2024-02-21T13:29:50;2.97;;;0.40;;
68377;SDS011;55322;48.146;11.516;2024-02-21T13:32:16;2.27;;;0.50;;
68377;SDS011;55322;48.146;11.516;2024-02-21T13:34:41;2.50;;;0.30;;
68377;SDS011;55322;48.146;11.516;2024-02-21T13:37:07;3.27;;;0.40;;
68377;SDS011;55322;48.146;11.516;2024-02-21T13:39:34;1.67;;;0.25;;
68377;SDS011;55322;48.146;11.516;2024-02-21T13:42:00;2.47;;;0.30;;
68377;SDS011;55322;48.146;11.516;2024-02-21T13:44:26;2.50;;;0.30;;
68377;SDS011;55322;48.146;11.516;2024-02-21T13:46:51;2.63;;;0.30;;
68377;SDS011;55322;48.146;11.516;2024-02-21T13:49:17;2.67;;;0.40;;
68377;SDS011;55322;48.146;11.516;2024-02-21T13:51:42;2.77;;;0.37;;
68377;SDS011;55322;48.146;11.516;2024-02-21T13:54:09;4.50;;;0.30;;
68377;SDS011;55322;48.146;11.516;2024-02-21T13:56:36;2.08;;;0.35;;
68377;SDS011;55322;48.146;11.516;2024-02-21T13:59:02;2.37;;;0.40;;
68377;SDS011;55322;48.146;11.516;2024-02-21T14:01:27;3.40;;;0.40;;
68377;SDS011;55322;48.146;11.516;2024-02-21T14:04:00;2.20;;;0.40;;
68377;SDS011;55322;48.146;11.516;2024-02-21T14:06:26;2.70;;;0.40;;
68377;SDS011;55322;48.146;11.516;2024-02-21T14:08:51;1.93;;;0.40;;
68377;SDS011;55322;48.146;11.516;2024-02-21T14:11:17;1.97;;;0.30;;
68377;SDS011;55322;48.146;11.516;2024-02-21T14:13:42;2.73;;;0.40;;
68377;SDS011;55322;48.146;11.516;2024-02-21T14:16:11;2.60;;;0.40;;
68377;SDS011;55322;48.146;11.516;2024-02-21T14:18:38;2.87;;;0.50;;
68377;SDS011;55322;48.146;11.516;2024-02-21T14:21:06;2.08;;;0.30;;
68377;SDS011;55322;48.146;11.516;2024-02-21T14:23:31;2.15;;;0.30;;
68377;SDS011;55322;48.146;11.516;2024-02-21T14:25:58;2.67;;;0.40;;
68377;SDS011;55322;48.146;11.516;2024-02-21T14:28:23;3.30;;;0.40;;
68377;SDS011;55322;48.146;11.516;2024-02-21T14:30:49;3.20;;;0.40;;
68377;SDS011;55322;48.146;11.516;2024-02-21T14:33:18;2.50;;;0.40;;
68377;SDS011;55322;48.146;11.516;2024-02-21T14:35:44;3.60;;;0.50;;
68377;SDS011;55322;48.146;11.516;2024-02-21T14:38:09;2.70;;;0.40;;
68377;SDS011;55322;48.146;11.516;2024-02-21T14:40:34;2.93;;;0.40;;
68377;SDS011;55322;48.146;11.516;2024-02-21T14:43:00;3.30;;;0.50;;